sensor_id;sensor_type;location;lat;lon;timestamp;temperature;humidity
59146;DHT22;44928;53.074;6.646;2024-02-14T00:02:13;6.90;99.90
59146;DHT22;44928;53.074;6.646;2024-02-14T00:04:38;6.90;99.90
59146;DHT22;44928;53.074;6.646;2024-02-14T00:07:04;6.90;99.90
59146;DHT22;44928;53.074;6.646;2024-02-14T00:09:31;6.90;99.90
59146;DHT22;44928;53.074;6.646;2024-02-14T00:11:57;6.90;99.90
59146;DHT22;44928;53.074;6.646;2024-02-14T00:14:23;6.90;99.90
59146;DHT22;44928;53.074;6.646;2024-02-14T00:16:49;6.90;99.90
59146;DHT22;44928;53.074;6.646;2024-02-14T00:19:15;6.90;99.90
59146;DHT22;44928;53.074;6.646;2024-02-14T00:21:40;6.90;99.90
59146;DHT22;44928;53.074;6.646;2024-02-14T00:24:06;6.90;99.90
59146;DHT22;44928;53.074;6.646;2024-02-14T00:26:32;6.90;99.90
59146;DHT22;44928;53.074;6.646;2024-02-14T00:28:58;6.90;99.90
59146;DHT22;44928;53.074;6.646;2024-02-14T00:31:24;6.90;99.90
59146;DHT22;44928;53.074;6.646;2024-02-14T00:33:49;6.90;99.90
59146;DHT22;44928;53.074;6.646;2024-02-14T00:36:16;6.90;99.90
59146;DHT22;44928;53.074;6.646;2024-02-14T00:38:42;6.90;99.90
59146;DHT22;44928;53.074;6.646;2024-02-14T00:41:08;7.00;99.90
59146;DHT22;44928;53.074;6.646;2024-02-14T00:43:36;6.90;99.90
59146;DHT22;44928;53.074;6.646;2024-02-14T00:46:02;7.00;99.90
59146;DHT22;44928;53.074;6.646;2024-02-14T00:48:28;7.00;99.90
59146;DHT22;44928;53.074;6.646;2024-02-14T00:50:54;6.90;99.90
59146;DHT22;44928;53.074;6.646;2024-02-14T00:53:20;7.00;99.90
59146;DHT22;44928;53.074;6.646;2024-02-14T00:55:46;7.00;99.90
59146;DHT22;44928;53.074;6.646;2024-02-14T00:58:12;7.00;99.90
59146;DHT22;44928;53.074;6.646;2024-02-14T01:00:38;7.00;99.90
59146;DHT22;44928;53.074;6.646;2024-02-14T01:03:04;7.00;99.90
59146;DHT22;44928;53.074;6.646;2024-02-14T01:05:29;7.00;99.90
59146;DHT22;44928;53.074;6.646;2024-02-14T01:07:55;7.00;99.90
59146;DHT22;44928;53.074;6.646;2024-02-14T01:10:21;7.00;99.90
59146;DHT22;44928;53.074;6.646;2024-02-14T01:12:47;7.10;99.90
59146;DHT22;44928;53.074;6.646;2024-02-14T01:15:13;7.10;99.90
59146;DHT22;44928;53.074;6.646;2024-02-14T01:17:38;7.10;99.90
59146;DHT22;44928;53.074;6.646;2024-02-14T01:20:05;7.10;99.90
59146;DHT22;44928;53.074;6.646;2024-02-14T01:22:35;7.10;99.90
59146;DHT22;44928;53.074;6.646;2024-02-14T01:25:01;7.10;99.90
59146;DHT22;44928;53.074;6.646;2024-02-14T01:27:28;7.10;99.90
59146;DHT22;44928;53.074;6.646;2024-02-14T01:29:54;7.10;99.90
59146;DHT22;44928;53.074;6.646;2024-02-14T01:32:20;7.10;99.90
59146;DHT22;44928;53.074;6.646;2024-02-14T01:34:46;7.20;99.90
59146;DHT22;44928;53.074;6.646;2024-02-14T01:37:12;7.20;99.90
59146;DHT22;44928;53.074;6.646;2024-02-14T01:39:38;7.20;99.90
59146;DHT22;44928;53.074;6.646;2024-02-14T01:42:04;7.20;99.90
59146;DHT22;44928;53.074;6.646;2024-02-14T01:44:33;7.20;99.90
59146;DHT22;44928;53.074;6.646;2024-02-14T01:46:59;7.20;99.90
59146;DHT22;44928;53.074;6.646;2024-02-14T01:49:26;7.20;99.90
59146;DHT22;44928;53.074;6.646;2024-02-14T01:51:57;7.20;99.90
59146;DHT22;44928;53.074;6.646;2024-02-14T01:54:25;7.20;99.90
59146;DHT22;44928;53.074;6.646;2024-02-14T01:56:52;7.30;99.90
59146;DHT22;44928;53.074;6.646;2024-02-14T01:59:18;7.30;99.90
59146;DHT22;44928;53.074;6.646;2024-02-14T02:01:45;7.30;99.90
59146;DHT22;44928;53.074;6.646;2024-02-14T02:04:10;7.30;99.90
59146;DHT22;44928;53.074;6.646;2024-02-14T02:06:36;7.30;99.90
59146;DHT22;44928;53.074;6.646;2024-02-14T02:09:03;7.30;99.90
59146;DHT22;44928;53.074;6.646;2024-02-14T02:11:29;7.30;99.90
59146;DHT22;44928;53.074;6.646;2024-02-14T02:13:56;7.40;99.90
59146;DHT22;44928;53.074;6.646;2024-02-14T02:16:22;7.40;99.90
59146;DHT22;44928;53.074;6.646;2024-02-14T02:18:48;7.40;99.90
59146;DHT22;44928;53.074;6.646;2024-02-14T02:21:16;7.40;99.90
59146;DHT22;44928;53.074;6.646;2024-02-14T02:23:46;7.50;99.90
59146;DHT22;44928;53.074;6.646;2024-02-14T02:26:12;7.50;99.90
59146;DHT22;44928;53.074;6.646;2024-02-14T02:28:38;7.50;99.90
59146;DHT22;44928;53.074;6.646;2024-02-14T02:31:05;7.50;99.90
59146;DHT22;44928;53.074;6.646;2024-02-14T02:33:31;7.50;99.90
59146;DHT22;44928;53.074;6.646;2024-02-14T02:35:56;7.50;99.90
59146;DHT22;44928;53.074;6.646;2024-02-14T02:38:23;7.50;99.90
59146;DHT22;44928;53.074;6.646;2024-02-14T02:40:49;7.60;99.90
59146;DHT22;44928;53.074;6.646;2024-02-14T02:43:15;7.60;99.90
59146;DHT22;44928;53.074;6.646;2024-02-14T02:45:40;7.60;99.90
59146;DHT22;44928;53.074;6.646;2024-02-14T02:48:07;7.60;99.90
59146;DHT22;44928;53.074;6.646;2024-02-14T02:50:33;7.70;99.90
59146;DHT22;44928;53.074;6.646;2024-02-14T02:52:59;7.70;99.90
59146;DHT22;44928;53.074;6.646;2024-02-14T02:55:25;7.70;99.90
59146;DHT22;44928;53.074;6.646;2024-02-14T02:57:52;7.70;99.90
59146;DHT22;44928;53.074;6.646;2024-02-14T03:00:18;7.70;99.90
59146;DHT22;44928;53.074;6.646;2024-02-14T03:02:47;7.70;99.90
59146;DHT22;44928;53.074;6.646;2024-02-14T03:05:13;7.80;99.90
59146;DHT22;44928;53.074;6.646;2024-02-14T03:07:45;7.80;99.90
59146;DHT22;44928;53.074;6.646;2024-02-14T03:10:12;7.80;99.90
59146;DHT22;44928;53.074;6.646;2024-02-14T03:12:47;7.80;99.90
59146;DHT22;44928;53.074;6.646;2024-02-14T03:15:14;7.90;99.90
59146;DHT22;44928;53.074;6.646;2024-02-14T03:17:40;7.90;99.90
59146;DHT22;44928;53.074;6.646;2024-02-14T03:20:06;7.90;99.90
59146;DHT22;44928;53.074;6.646;2024-02-14T03:22:39;8.00;99.90
59146;DHT22;44928;53.074;6.646;2024-02-14T03:25:13;8.00;99.90
59146;DHT22;44928;53.074;6.646;2024-02-14T03:27:39;8.00;99.90
59146;DHT22;44928;53.074;6.646;2024-02-14T03:30:06;8.00;99.90
59146;DHT22;44928;53.074;6.646;2024-02-14T03:32:32;8.10;99.90
59146;DHT22;44928;53.074;6.646;2024-02-14T03:34:58;8.10;99.90
59146;DHT22;44928;53.074;6.646;2024-02-14T03:37:26;8.10;99.90
59146;DHT22;44928;53.074;6.646;2024-02-14T03:39:52;8.20;99.90
59146;DHT22;44928;53.074;6.646;2024-02-14T03:42:18;8.20;99.90
59146;DHT22;44928;53.074;6.646;2024-02-14T03:44:45;8.20;99.90
59146;DHT22;44928;53.074;6.646;2024-02-14T03:47:12;8.30;99.90
59146;DHT22;44928;53.074;6.646;2024-02-14T03:49:39;8.30;99.90
59146;DHT22;44928;53.074;6.646;2024-02-14T03:52:06;8.30;99.90
59146;DHT22;44928;53.074;6.646;2024-02-14T03:54:36;8.40;99.90
59146;DHT22;44928;53.074;6.646;2024-02-14T03:57:03;8.40;99.90
59146;DHT22;44928;53.074;6.646;2024-02-14T03:59:31;8.40;99.90
59146;DHT22;44928;53.074;6.646;2024-02-14T04:01:58;8.50;99.90
59146;DHT22;44928;53.074;6.646;2024-02-14T04:04:23;8.50;99.90
59146;DHT22;44928;53.074;6.646;2024-02-14T04:06:49;8.50;99.90
59146;DHT22;44928;53.074;6.646;2024-02-14T04:09:15;8.50;99.90
59146;DHT22;44928;53.074;6.646;2024-02-14T04:11:41;8.50;99.90
59146;DHT22;44928;53.074;6.646;2024-02-14T04:14:07;8.60;99.90
59146;DHT22;44928;53.074;6.646;2024-02-14T04:16:33;8.60;99.90
59146;DHT22;44928;53.074;6.646;2024-02-14T04:18:58;8.70;99.90
59146;DHT22;44928;53.074;6.646;2024-02-14T04:21:24;8.70;99.90
59146;DHT22;44928;53.074;6.646;2024-02-14T04:23:50;8.70;99.90
59146;DHT22;44928;53.074;6.646;2024-02-14T04:26:22;8.80;99.90
59146;DHT22;44928;53.074;6.646;2024-02-14T04:28:48;8.80;99.90
59146;DHT22;44928;53.074;6.646;2024-02-14T04:31:14;8.80;99.90
59146;DHT22;44928;53.074;6.646;2024-02-14T04:33:39;8.80;99.90
59146;DHT22;44928;53.074;6.646;2024-02-14T04:36:06;8.80;99.90
59146;DHT22;44928;53.074;6.646;2024-02-14T04:38:32;8.80;99.90
59146;DHT22;44928;53.074;6.646;2024-02-14T04:40:57;8.90;99.90
59146;DHT22;44928;53.074;6.646;2024-02-14T04:43:25;8.90;99.90
59146;DHT22;44928;53.074;6.646;2024-02-14T04:45:52;8.90;99.90
59146;DHT22;44928;53.074;6.646;2024-02-14T04:48:20;8.90;99.90
59146;DHT22;44928;53.074;6.646;2024-02-14T04:50:45;8.90;99.90
59146;DHT22;44928;53.074;6.646;2024-02-14T04:53:11;9.00;99.90
59146;DHT22;44928;53.074;6.646;2024-02-14T04:55:37;9.00;99.90
59146;DHT22;44928;53.074;6.646;2024-02-14T04:58:03;9.00;99.90
59146;DHT22;44928;53.074;6.646;2024-02-14T05:00:30;9.10;99.90
59146;DHT22;44928;53.074;6.646;2024-02-14T05:02:56;9.10;99.90
59146;DHT22;44928;53.074;6.646;2024-02-14T05:05:23;9.10;99.90
59146;DHT22;44928;53.074;6.646;2024-02-14T05:07:48;9.10;99.90
59146;DHT22;44928;53.074;6.646;2024-02-14T05:10:14;9.10;99.90
59146;DHT22;44928;53.074;6.646;2024-02-14T05:12:40;9.20;99.90
59146;DHT22;44928;53.074;6.646;2024-02-14T05:15:07;9.20;99.90
59146;DHT22;44928;53.074;6.646;2024-02-14T05:17:33;9.20;99.90
59146;DHT22;44928;53.074;6.646;2024-02-14T05:20:00;9.20;99.90
59146;DHT22;44928;53.074;6.646;2024-02-14T05:22:26;9.20;99.90
59146;DHT22;44928;53.074;6.646;2024-02-14T05:24:53;9.20;99.90
59146;DHT22;44928;53.074;6.646;2024-02-14T05:27:18;9.20;99.90
59146;DHT22;44928;53.074;6.646;2024-02-14T05:29:45;9.30;99.90
59146;DHT22;44928;53.074;6.646;2024-02-14T05:32:11;9.30;99.90
59146;DHT22;44928;53.074;6.646;2024-02-14T05:34:37;9.30;99.90
59146;DHT22;44928;53.074;6.646;2024-02-14T05:37:03;9.30;99.90
59146;DHT22;44928;53.074;6.646;2024-02-14T05:39:31;9.30;99.90
59146;DHT22;44928;53.074;6.646;2024-02-14T05:41:57;9.40;99.90
59146;DHT22;44928;53.074;6.646;2024-02-14T05:44:22;9.40;99.90
59146;DHT22;44928;53.074;6.646;2024-02-14T05:46:48;9.40;99.90
59146;DHT22;44928;53.074;6.646;2024-02-14T05:49:14;9.40;99.90
59146;DHT22;44928;53.074;6.646;2024-02-14T05:51:40;9.40;99.90
59146;DHT22;44928;53.074;6.646;2024-02-14T05:54:06;9.40;99.90
59146;DHT22;44928;53.074;6.646;2024-02-14T05:56:32;9.40;99.90
59146;DHT22;44928;53.074;6.646;2024-02-14T05:58:58;9.40;99.90
59146;DHT22;44928;53.074;6.646;2024-02-14T06:01:23;9.40;99.90
59146;DHT22;44928;53.074;6.646;2024-02-14T06:03:49;9.50;99.90
59146;DHT22;44928;53.074;6.646;2024-02-14T06:06:15;9.50;99.90
59146;DHT22;44928;53.074;6.646;2024-02-14T06:08:41;9.50;99.90
59146;DHT22;44928;53.074;6.646;2024-02-14T06:11:06;9.50;99.90
59146;DHT22;44928;53.074;6.646;2024-02-14T06:13:33;9.50;99.90
59146;DHT22;44928;53.074;6.646;2024-02-14T06:15:59;9.60;99.90
59146;DHT22;44928;53.074;6.646;2024-02-14T06:18:25;9.60;99.90
59146;DHT22;44928;53.074;6.646;2024-02-14T06:20:50;9.60;99.90
59146;DHT22;44928;53.074;6.646;2024-02-14T06:23:16;9.60;99.90
59146;DHT22;44928;53.074;6.646;2024-02-14T06:25:42;9.70;99.90
59146;DHT22;44928;53.074;6.646;2024-02-14T06:28:08;9.70;99.90
59146;DHT22;44928;53.074;6.646;2024-02-14T06:30:35;9.70;99.90
59146;DHT22;44928;53.074;6.646;2024-02-14T06:33:01;9.70;99.90
59146;DHT22;44928;53.074;6.646;2024-02-14T06:35:28;9.70;99.90
59146;DHT22;44928;53.074;6.646;2024-02-14T06:37:54;9.70;99.90
59146;DHT22;44928;53.074;6.646;2024-02-14T06:40:21;9.70;99.90
59146;DHT22;44928;53.074;6.646;2024-02-14T06:42:47;9.80;99.90
59146;DHT22;44928;53.074;6.646;2024-02-14T06:45:16;9.80;99.90
59146;DHT22;44928;53.074;6.646;2024-02-14T06:47:42;9.80;99.90
59146;DHT22;44928;53.074;6.646;2024-02-14T06:50:08;9.80;99.90
59146;DHT22;44928;53.074;6.646;2024-02-14T06:52:34;9.80;99.90
59146;DHT22;44928;53.074;6.646;2024-02-14T06:55:00;9.80;99.90
59146;DHT22;44928;53.074;6.646;2024-02-14T06:57:29;9.90;99.90
59146;DHT22;44928;53.074;6.646;2024-02-14T06:59:55;9.90;99.90
59146;DHT22;44928;53.074;6.646;2024-02-14T07:02:21;9.90;99.90
59146;DHT22;44928;53.074;6.646;2024-02-14T07:04:46;9.90;99.90
59146;DHT22;44928;53.074;6.646;2024-02-14T07:07:12;9.90;99.90
59146;DHT22;44928;53.074;6.646;2024-02-14T07:09:38;9.90;99.90
59146;DHT22;44928;53.074;6.646;2024-02-14T07:12:04;9.90;99.90
59146;DHT22;44928;53.074;6.646;2024-02-14T07:14:31;10.00;99.90
59146;DHT22;44928;53.074;6.646;2024-02-14T07:16:56;9.90;99.90
59146;DHT22;44928;53.074;6.646;2024-02-14T07:19:22;9.90;99.90
59146;DHT22;44928;53.074;6.646;2024-02-14T07:21:48;9.90;99.90
59146;DHT22;44928;53.074;6.646;2024-02-14T07:24:14;9.90;99.90
59146;DHT22;44928;53.074;6.646;2024-02-14T07:26:39;10.00;99.90
59146;DHT22;44928;53.074;6.646;2024-02-14T07:29:07;10.00;99.90
59146;DHT22;44928;53.074;6.646;2024-02-14T07:31:32;10.00;99.90
59146;DHT22;44928;53.074;6.646;2024-02-14T07:34:02;10.00;99.90
59146;DHT22;44928;53.074;6.646;2024-02-14T07:36:32;10.00;99.90
59146;DHT22;44928;53.074;6.646;2024-02-14T07:38:57;10.00;99.90
59146;DHT22;44928;53.074;6.646;2024-02-14T07:41:23;10.00;99.90
59146;DHT22;44928;53.074;6.646;2024-02-14T07:43:49;10.00;99.90
59146;DHT22;44928;53.074;6.646;2024-02-14T07:46:19;10.10;99.90
59146;DHT22;44928;53.074;6.646;2024-02-14T07:48:45;10.10;99.90
59146;DHT22;44928;53.074;6.646;2024-02-14T07:51:11;10.10;99.90
59146;DHT22;44928;53.074;6.646;2024-02-14T07:53:37;10.10;99.90
59146;DHT22;44928;53.074;6.646;2024-02-14T07:56:03;10.10;99.90
59146;DHT22;44928;53.074;6.646;2024-02-14T07:58:29;10.10;99.90
59146;DHT22;44928;53.074;6.646;2024-02-14T08:00:54;10.20;99.90
59146;DHT22;44928;53.074;6.646;2024-02-14T08:03:20;10.20;99.90
59146;DHT22;44928;53.074;6.646;2024-02-14T08:05:46;10.20;99.90
59146;DHT22;44928;53.074;6.646;2024-02-14T08:08:12;10.20;99.90
59146;DHT22;44928;53.074;6.646;2024-02-14T08:10:38;10.20;99.90
59146;DHT22;44928;53.074;6.646;2024-02-14T08:13:04;10.30;99.90
59146;DHT22;44928;53.074;6.646;2024-02-14T08:15:30;10.20;99.90
59146;DHT22;44928;53.074;6.646;2024-02-14T08:17:56;10.20;99.90
59146;DHT22;44928;53.074;6.646;2024-02-14T08:20:22;10.20;99.90
59146;DHT22;44928;53.074;6.646;2024-02-14T08:22:49;10.20;99.90
59146;DHT22;44928;53.074;6.646;2024-02-14T08:25:15;10.30;99.90
59146;DHT22;44928;53.074;6.646;2024-02-14T08:27:41;10.30;99.90
59146;DHT22;44928;53.074;6.646;2024-02-14T08:30:07;10.30;99.90
59146;DHT22;44928;53.074;6.646;2024-02-14T08:32:34;10.30;99.90
59146;DHT22;44928;53.074;6.646;2024-02-14T08:35:00;10.30;99.90
59146;DHT22;44928;53.074;6.646;2024-02-14T08:37:27;10.30;99.90
59146;DHT22;44928;53.074;6.646;2024-02-14T08:39:53;10.40;99.90
59146;DHT22;44928;53.074;6.646;2024-02-14T08:42:18;10.40;99.90
59146;DHT22;44928;53.074;6.646;2024-02-14T08:44:44;10.40;99.90
59146;DHT22;44928;53.074;6.646;2024-02-14T08:47:10;10.50;99.90
59146;DHT22;44928;53.074;6.646;2024-02-14T08:49:36;10.50;99.90
59146;DHT22;44928;53.074;6.646;2024-02-14T08:52:02;10.50;99.90
59146;DHT22;44928;53.074;6.646;2024-02-14T08:54:28;10.40;99.90
59146;DHT22;44928;53.074;6.646;2024-02-14T08:56:54;10.50;99.90
59146;DHT22;44928;53.074;6.646;2024-02-14T08:59:24;10.50;99.90
59146;DHT22;44928;53.074;6.646;2024-02-14T09:01:49;10.50;99.90
59146;DHT22;44928;53.074;6.646;2024-02-14T09:04:15;10.50;99.90
59146;DHT22;44928;53.074;6.646;2024-02-14T09:06:41;10.50;99.90
59146;DHT22;44928;53.074;6.646;2024-02-14T09:09:07;10.60;99.90
59146;DHT22;44928;53.074;6.646;2024-02-14T09:11:36;10.60;99.90
59146;DHT22;44928;53.074;6.646;2024-02-14T09:14:02;10.60;99.90
59146;DHT22;44928;53.074;6.646;2024-02-14T09:16:30;10.60;99.90
59146;DHT22;44928;53.074;6.646;2024-02-14T09:18:57;10.60;99.90
59146;DHT22;44928;53.074;6.646;2024-02-14T09:21:23;10.60;99.90
59146;DHT22;44928;53.074;6.646;2024-02-14T09:23:49;10.70;99.90
59146;DHT22;44928;53.074;6.646;2024-02-14T09:26:15;10.70;99.90
59146;DHT22;44928;53.074;6.646;2024-02-14T09:28:44;10.70;99.90
59146;DHT22;44928;53.074;6.646;2024-02-14T09:31:10;10.70;99.90
59146;DHT22;44928;53.074;6.646;2024-02-14T09:33:40;10.70;99.90
59146;DHT22;44928;53.074;6.646;2024-02-14T09:36:06;10.70;99.90
59146;DHT22;44928;53.074;6.646;2024-02-14T09:38:32;10.70;99.90
59146;DHT22;44928;53.074;6.646;2024-02-14T09:41:36;10.80;99.90
59146;DHT22;44928;53.074;6.646;2024-02-14T09:44:00;10.70;99.90
59146;DHT22;44928;53.074;6.646;2024-02-14T09:46:26;10.80;99.90
59146;DHT22;44928;53.074;6.646;2024-02-14T09:48:52;10.80;99.90
59146;DHT22;44928;53.074;6.646;2024-02-14T09:51:19;10.80;99.90
59146;DHT22;44928;53.074;6.646;2024-02-14T09:53:45;10.80;99.90
59146;DHT22;44928;53.074;6.646;2024-02-14T09:56:12;10.80;99.90
59146;DHT22;44928;53.074;6.646;2024-02-14T09:58:40;10.80;99.90
59146;DHT22;44928;53.074;6.646;2024-02-14T10:01:06;10.90;99.90
59146;DHT22;44928;53.074;6.646;2024-02-14T10:03:33;10.90;99.90
59146;DHT22;44928;53.074;6.646;2024-02-14T10:06:01;10.90;99.90
59146;DHT22;44928;53.074;6.646;2024-02-14T10:08:27;10.90;99.90
59146;DHT22;44928;53.074;6.646;2024-02-14T10:10:57;10.90;99.90
59146;DHT22;44928;53.074;6.646;2024-02-14T10:13:25;11.00;99.90
59146;DHT22;44928;53.074;6.646;2024-02-14T10:15:51;11.00;99.90
59146;DHT22;44928;53.074;6.646;2024-02-14T10:18:17;11.10;99.90
59146;DHT22;44928;53.074;6.646;2024-02-14T10:20:55;11.10;99.90
59146;DHT22;44928;53.074;6.646;2024-02-14T10:23:21;11.10;99.90
59146;DHT22;44928;53.074;6.646;2024-02-14T10:25:54;11.10;99.90
59146;DHT22;44928;53.074;6.646;2024-02-14T10:28:22;11.10;99.90
59146;DHT22;44928;53.074;6.646;2024-02-14T10:30:48;11.10;99.90
59146;DHT22;44928;53.074;6.646;2024-02-14T10:33:18;11.10;99.90
59146;DHT22;44928;53.074;6.646;2024-02-14T10:35:47;11.10;99.90
59146;DHT22;44928;53.074;6.646;2024-02-14T10:38:16;11.10;99.90
59146;DHT22;44928;53.074;6.646;2024-02-14T10:40:47;11.10;99.90
59146;DHT22;44928;53.074;6.646;2024-02-14T10:43:13;11.10;99.90
59146;DHT22;44928;53.074;6.646;2024-02-14T10:45:39;11.10;99.90
59146;DHT22;44928;53.074;6.646;2024-02-14T10:48:05;11.20;99.90
59146;DHT22;44928;53.074;6.646;2024-02-14T10:50:33;11.20;99.90
59146;DHT22;44928;53.074;6.646;2024-02-14T10:53:05;11.20;99.90
59146;DHT22;44928;53.074;6.646;2024-02-14T10:55:33;11.20;99.90
59146;DHT22;44928;53.074;6.646;2024-02-14T10:58:00;11.20;99.90
59146;DHT22;44928;53.074;6.646;2024-02-14T11:00:27;11.20;99.90
59146;DHT22;44928;53.074;6.646;2024-02-14T11:02:53;11.20;99.90
59146;DHT22;44928;53.074;6.646;2024-02-14T11:05:20;11.20;99.90
59146;DHT22;44928;53.074;6.646;2024-02-14T11:07:49;11.20;99.90
59146;DHT22;44928;53.074;6.646;2024-02-14T11:10:19;11.20;99.90
59146;DHT22;44928;53.074;6.646;2024-02-14T11:12:47;11.20;99.90
59146;DHT22;44928;53.074;6.646;2024-02-14T11:15:21;11.20;99.90
59146;DHT22;44928;53.074;6.646;2024-02-14T11:17:48;11.20;99.90
59146;DHT22;44928;53.074;6.646;2024-02-14T11:20:21;11.20;99.90
59146;DHT22;44928;53.074;6.646;2024-02-14T11:23:01;11.20;99.90
59146;DHT22;44928;53.074;6.646;2024-02-14T11:25:34;11.20;99.90
59146;DHT22;44928;53.074;6.646;2024-02-14T11:28:23;11.20;99.90
59146;DHT22;44928;53.074;6.646;2024-02-14T11:30:49;11.30;99.90
59146;DHT22;44928;53.074;6.646;2024-02-14T11:35:44;11.30;99.90
59146;DHT22;44928;53.074;6.646;2024-02-14T11:38:11;11.30;99.90
59146;DHT22;44928;53.074;6.646;2024-02-14T11:40:37;11.40;99.90
59146;DHT22;44928;53.074;6.646;2024-02-14T11:43:09;11.40;99.90
59146;DHT22;44928;53.074;6.646;2024-02-14T11:45:35;11.40;99.90
59146;DHT22;44928;53.074;6.646;2024-02-14T11:48:05;11.40;99.90
59146;DHT22;44928;53.074;6.646;2024-02-14T11:50:31;11.40;99.90
59146;DHT22;44928;53.074;6.646;2024-02-14T11:52:58;11.40;99.90
59146;DHT22;44928;53.074;6.646;2024-02-14T11:55:28;11.40;99.90
59146;DHT22;44928;53.074;6.646;2024-02-14T11:57:58;11.40;99.90
59146;DHT22;44928;53.074;6.646;2024-02-14T12:00:24;11.40;99.90
59146;DHT22;44928;53.074;6.646;2024-02-14T12:02:51;11.40;99.90
59146;DHT22;44928;53.074;6.646;2024-02-14T12:05:17;11.40;99.90
59146;DHT22;44928;53.074;6.646;2024-02-14T12:07:43;11.40;99.90
59146;DHT22;44928;53.074;6.646;2024-02-14T12:10:10;11.50;99.90
59146;DHT22;44928;53.074;6.646;2024-02-14T12:12:38;11.50;99.90
59146;DHT22;44928;53.074;6.646;2024-02-14T12:15:04;11.50;99.90
59146;DHT22;44928;53.074;6.646;2024-02-14T12:17:32;11.50;99.90
59146;DHT22;44928;53.074;6.646;2024-02-14T12:20:21;11.50;99.90
59146;DHT22;44928;53.074;6.646;2024-02-14T12:22:50;11.50;99.90
59146;DHT22;44928;53.074;6.646;2024-02-14T12:25:16;11.50;99.90
59146;DHT22;44928;53.074;6.646;2024-02-14T12:27:42;11.50;99.90
59146;DHT22;44928;53.074;6.646;2024-02-14T12:30:08;11.50;99.90
59146;DHT22;44928;53.074;6.646;2024-02-14T12:32:35;11.50;99.90
59146;DHT22;44928;53.074;6.646;2024-02-14T12:35:01;11.50;99.90
59146;DHT22;44928;53.074;6.646;2024-02-14T12:37:27;11.50;99.90
59146;DHT22;44928;53.074;6.646;2024-02-14T12:39:53;11.50;99.90
59146;DHT22;44928;53.074;6.646;2024-02-14T12:42:20;11.50;99.90
59146;DHT22;44928;53.074;6.646;2024-02-14T12:44:52;11.50;99.90
59146;DHT22;44928;53.074;6.646;2024-02-14T12:47:18;11.50;99.90
59146;DHT22;44928;53.074;6.646;2024-02-14T12:49:47;11.50;99.90
59146;DHT22;44928;53.074;6.646;2024-02-14T12:52:13;11.50;99.90
59146;DHT22;44928;53.074;6.646;2024-02-14T12:54:39;11.50;99.90
59146;DHT22;44928;53.074;6.646;2024-02-14T12:57:05;11.50;99.90
59146;DHT22;44928;53.074;6.646;2024-02-14T12:59:32;11.50;99.90
59146;DHT22;44928;53.074;6.646;2024-02-14T13:01:58;11.50;99.90
59146;DHT22;44928;53.074;6.646;2024-02-14T13:04:24;11.60;99.90
59146;DHT22;44928;53.074;6.646;2024-02-14T13:06:50;11.50;99.90
59146;DHT22;44928;53.074;6.646;2024-02-14T13:09:15;11.50;99.90
59146;DHT22;44928;53.074;6.646;2024-02-14T13:11:41;11.50;99.90
59146;DHT22;44928;53.074;6.646;2024-02-14T13:14:08;11.60;99.90
59146;DHT22;44928;53.074;6.646;2024-02-14T13:16:34;11.50;99.90
59146;DHT22;44928;53.074;6.646;2024-02-14T13:19:00;11.60;99.90
59146;DHT22;44928;53.074;6.646;2024-02-14T13:21:26;11.60;99.90
59146;DHT22;44928;53.074;6.646;2024-02-14T13:23:52;11.60;99.90
59146;DHT22;44928;53.074;6.646;2024-02-14T13:26:18;11.60;99.90
59146;DHT22;44928;53.074;6.646;2024-02-14T13:28:44;11.60;99.90
59146;DHT22;44928;53.074;6.646;2024-02-14T13:31:09;11.60;99.90
59146;DHT22;44928;53.074;6.646;2024-02-14T13:33:36;11.60;99.90
59146;DHT22;44928;53.074;6.646;2024-02-14T13:36:02;11.60;99.90
59146;DHT22;44928;53.074;6.646;2024-02-14T13:38:29;11.60;99.90
59146;DHT22;44928;53.074;6.646;2024-02-14T13:40:55;11.60;99.90
59146;DHT22;44928;53.074;6.646;2024-02-14T13:43:21;11.60;99.90
59146;DHT22;44928;53.074;6.646;2024-02-14T13:45:47;11.60;99.90
59146;DHT22;44928;53.074;6.646;2024-02-14T13:48:14;11.60;99.90
59146;DHT22;44928;53.074;6.646;2024-02-14T13:50:40;11.60;99.90
59146;DHT22;44928;53.074;6.646;2024-02-14T13:53:08;11.60;99.90
59146;DHT22;44928;53.074;6.646;2024-02-14T13:55:33;11.60;99.90
59146;DHT22;44928;53.074;6.646;2024-02-14T13:58:00;11.60;99.90
59146;DHT22;44928;53.074;6.646;2024-02-14T14:00:25;11.60;99.90
59146;DHT22;44928;53.074;6.646;2024-02-14T14:02:51;11.60;99.90
59146;DHT22;44928;53.074;6.646;2024-02-14T14:05:17;11.50;99.90
59146;DHT22;44928;53.074;6.646;2024-02-14T14:07:43;11.60;99.90
59146;DHT22;44928;53.074;6.646;2024-02-14T14:10:09;11.50;99.90
59146;DHT22;44928;53.074;6.646;2024-02-14T14:12:35;11.50;99.90
59146;DHT22;44928;53.074;6.646;2024-02-14T14:15:02;11.50;99.90
59146;DHT22;44928;53.074;6.646;2024-02-14T14:17:28;11.50;99.90
59146;DHT22;44928;53.074;6.646;2024-02-14T14:19:54;11.50;99.90
59146;DHT22;44928;53.074;6.646;2024-02-14T14:22:20;11.60;99.90
59146;DHT22;44928;53.074;6.646;2024-02-14T14:24:47;11.60;99.90
59146;DHT22;44928;53.074;6.646;2024-02-14T14:27:13;11.60;99.90
59146;DHT22;44928;53.074;6.646;2024-02-14T14:29:42;11.60;99.90
59146;DHT22;44928;53.074;6.646;2024-02-14T14:32:08;11.50;99.90
59146;DHT22;44928;53.074;6.646;2024-02-14T14:34:34;11.50;99.90
59146;DHT22;44928;53.074;6.646;2024-02-14T14:37:00;11.50;99.90
59146;DHT22;44928;53.074;6.646;2024-02-14T14:39:26;11.50;99.90
59146;DHT22;44928;53.074;6.646;2024-02-14T14:41:52;11.50;99.90
59146;DHT22;44928;53.074;6.646;2024-02-14T14:44:24;11.50;99.90
59146;DHT22;44928;53.074;6.646;2024-02-14T14:46:50;11.50;99.90
59146;DHT22;44928;53.074;6.646;2024-02-14T14:49:16;11.50;99.90
59146;DHT22;44928;53.074;6.646;2024-02-14T14:51:42;11.50;99.90
59146;DHT22;44928;53.074;6.646;2024-02-14T14:54:09;11.50;99.90
59146;DHT22;44928;53.074;6.646;2024-02-14T14:56:35;11.60;99.90
59146;DHT22;44928;53.074;6.646;2024-02-14T14:59:00;11.50;99.90
59146;DHT22;44928;53.074;6.646;2024-02-14T15:01:32;11.60;99.90
59146;DHT22;44928;53.074;6.646;2024-02-14T15:03:59;11.60;99.90
59146;DHT22;44928;53.074;6.646;2024-02-14T15:06:26;11.50;99.90
59146;DHT22;44928;53.074;6.646;2024-02-14T15:08:52;11.50;99.90
59146;DHT22;44928;53.074;6.646;2024-02-14T15:11:18;11.50;99.90
59146;DHT22;44928;53.074;6.646;2024-02-14T15:13:47;11.60;99.90
59146;DHT22;44928;53.074;6.646;2024-02-14T15:16:13;11.60;99.90
59146;DHT22;44928;53.074;6.646;2024-02-14T15:18:39;11.60;99.90
59146;DHT22;44928;53.074;6.646;2024-02-14T15:21:07;11.60;99.90
59146;DHT22;44928;53.074;6.646;2024-02-14T15:23:33;11.60;99.90
59146;DHT22;44928;53.074;6.646;2024-02-14T15:25:59;11.60;99.90
59146;DHT22;44928;53.074;6.646;2024-02-14T15:28:29;11.60;99.90
59146;DHT22;44928;53.074;6.646;2024-02-14T15:30:58;11.60;99.90
59146;DHT22;44928;53.074;6.646;2024-02-14T15:33:42;11.60;99.90
59146;DHT22;44928;53.074;6.646;2024-02-14T15:36:09;11.60;99.90
59146;DHT22;44928;53.074;6.646;2024-02-14T15:38:36;11.60;99.90